DZH2001 DAOO-LPPD
Flight info
| Callsign | DZH2001 |
|---|---|
| Flight time | N/A |
| Altitude | 32000 |
| Route | MOS UM744 CARBO M744 SVL/N0460F340 M744 LASIB/N0420F240 UM744 BUSEN/N0412F230 UM744 KOMUT/M079F340 DCT BEKUN |
| Aircraft | A321/M-SDE3FGHIRWY/LB1 |
Departure
| Time | N/A |
|---|---|
| Airport | Oran Es-Sénia (Ahmed Ben Bella) International Airport (DAOO) |
Arrival
| Time | 2026-05-03 21:50 |
|---|---|
| Airport | João Paulo II Airport (LPPD) |
| Time | Latitude | Longitude | Altitude | Speed | Heading |
|---|---|---|---|---|---|
| 2026-05-03 20:15 | 38.02795 | -14.20734 | 36155 ft | 407 kts | 268° |
| 2026-05-03 20:15 | 38.02563 | -14.27882 | 36155 ft | 409 kts | 268° |
| 2026-05-03 20:16 | 38.02329 | -14.35093 | 36158 ft | 409 kts | 268° |
| 2026-05-03 20:16 | 38.02096 | -14.42301 | 36158 ft | 409 kts | 268° |
| 2026-05-03 20:17 | 38.01850 | -14.49511 | 36156 ft | 409 kts | 268° |
| 2026-05-03 20:17 | 38.01595 | -14.56707 | 36158 ft | 409 kts | 268° |
| 2026-05-03 20:18 | 38.01340 | -14.63930 | 36159 ft | 410 kts | 269° |
| 2026-05-03 20:18 | 38.01083 | -14.71154 | 36160 ft | 410 kts | 268° |
| 2026-05-03 20:19 | 38.00818 | -14.78380 | 36160 ft | 410 kts | 268° |
| 2026-05-03 20:19 | 38.00550 | -14.85601 | 36163 ft | 410 kts | 268° |
| 2026-05-03 20:20 | 38.00278 | -14.92836 | 36162 ft | 410 kts | 268° |
| 2026-05-03 20:20 | 37.99997 | -15.00055 | 36165 ft | 410 kts | 268° |
| 2026-05-03 20:21 | 38.00001 | -15.07286 | 36166 ft | 410 kts | 273° |
| 2026-05-03 20:21 | 38.00325 | -15.14486 | 36168 ft | 409 kts | 274° |
| 2026-05-03 20:22 | 38.00619 | -15.21704 | 36168 ft | 410 kts | 273° |
| 2026-05-03 20:22 | 38.00821 | -15.28921 | 36168 ft | 410 kts | 272° |
| 2026-05-03 20:23 | 38.00989 | -15.36138 | 36171 ft | 410 kts | 272° |
| 2026-05-03 20:23 | 38.01163 | -15.43358 | 36173 ft | 410 kts | 272° |
| 2026-05-03 20:24 | 38.01338 | -15.50573 | 36174 ft | 410 kts | 272° |
| 2026-05-03 20:24 | 38.01521 | -15.57789 | 36174 ft | 410 kts | 272° |
| 2026-05-03 20:25 | 38.01695 | -15.65015 | 36157 ft | 410 kts | 272° |
| 2026-05-03 20:25 | 38.01855 | -15.72237 | 36163 ft | 410 kts | 272° |
| 2026-05-03 20:26 | 38.02012 | -15.79426 | 36176 ft | 411 kts | 272° |
| 2026-05-03 20:26 | 38.02169 | -15.86668 | 36183 ft | 411 kts | 272° |
| 2026-05-03 20:27 | 38.02323 | -15.93921 | 36190 ft | 411 kts | 272° |
| 2026-05-03 20:27 | 38.02472 | -16.01172 | 36190 ft | 412 kts | 272° |
| 2026-05-03 20:28 | 38.02616 | -16.08438 | 36186 ft | 412 kts | 272° |
| 2026-05-03 20:28 | 38.02755 | -16.15756 | 36187 ft | 413 kts | 272° |
| 2026-05-03 20:29 | 38.02887 | -16.22983 | 36190 ft | 413 kts | 272° |
| 2026-05-03 20:29 | 38.03018 | -16.30266 | 36190 ft | 413 kts | 272° |
| 2026-05-03 20:30 | 38.03137 | -16.37549 | 36173 ft | 413 kts | 272° |
| 2026-05-03 20:30 | 38.03257 | -16.44834 | 36175 ft | 414 kts | 272° |
| 2026-05-03 20:31 | 38.03375 | -16.52140 | 36183 ft | 414 kts | 272° |
| 2026-05-03 20:31 | 38.03488 | -16.59452 | 36187 ft | 415 kts | 272° |
| 2026-05-03 20:32 | 38.03601 | -16.66765 | 36194 ft | 415 kts | 272° |
| 2026-05-03 20:32 | 38.03704 | -16.74093 | 36176 ft | 415 kts | 272° |
| 2026-05-03 20:33 | 38.03805 | -16.81421 | 36179 ft | 416 kts | 272° |
| 2026-05-03 20:33 | 38.03893 | -16.88721 | 36189 ft | 416 kts | 272° |
| 2026-05-03 20:34 | 38.03978 | -16.96114 | 36198 ft | 417 kts | 272° |
| 2026-05-03 20:34 | 38.04069 | -17.03458 | 36195 ft | 417 kts | 272° |
| 2026-05-03 20:35 | 38.04159 | -17.10811 | 36188 ft | 417 kts | 272° |
| 2026-05-03 20:35 | 38.04239 | -17.18134 | 36195 ft | 418 kts | 272° |
| 2026-05-03 20:36 | 38.04304 | -17.25552 | 36195 ft | 418 kts | 272° |
| 2026-05-03 20:36 | 38.04371 | -17.32887 | 36198 ft | 419 kts | 272° |
| 2026-05-03 20:37 | 38.04430 | -17.40281 | 36206 ft | 419 kts | 272° |
| 2026-05-03 20:37 | 38.04493 | -17.47720 | 36197 ft | 420 kts | 272° |
| 2026-05-03 20:38 | 38.04549 | -17.55087 | 36193 ft | 421 kts | 272° |
| 2026-05-03 20:38 | 38.04596 | -17.62508 | 36203 ft | 421 kts | 272° |
| 2026-05-03 20:39 | 38.04642 | -17.69948 | 36212 ft | 421 kts | 272° |
| 2026-05-03 20:39 | 38.04680 | -17.77373 | 36185 ft | 422 kts | 271° |
| 2026-05-03 20:40 | 38.04715 | -17.84808 | 36191 ft | 422 kts | 271° |
| 2026-05-03 20:40 | 38.04751 | -17.92271 | 36197 ft | 423 kts | 271° |
| 2026-05-03 20:41 | 38.04781 | -17.99726 | 36200 ft | 423 kts | 271° |
| 2026-05-03 20:41 | 38.04799 | -18.07187 | 36208 ft | 423 kts | 271° |
| 2026-05-03 20:42 | 38.04820 | -18.14653 | 36196 ft | 423 kts | 271° |
| 2026-05-03 20:42 | 38.04836 | -18.22132 | 36201 ft | 424 kts | 271° |
| 2026-05-03 20:43 | 38.04837 | -18.29620 | 36207 ft | 425 kts | 271° |
| 2026-05-03 20:43 | 38.04836 | -18.37129 | 36215 ft | 425 kts | 271° |
| 2026-05-03 20:44 | 38.04843 | -18.44637 | 36216 ft | 426 kts | 271° |
| 2026-05-03 20:44 | 38.04825 | -18.52149 | 36215 ft | 426 kts | 271° |
| 2026-05-03 20:45 | 38.04816 | -18.59664 | 36219 ft | 427 kts | 271° |
| 2026-05-03 20:45 | 38.04806 | -18.67200 | 36222 ft | 427 kts | 271° |
| 2026-05-03 20:46 | 38.04784 | -18.74722 | 36221 ft | 427 kts | 271° |
| 2026-05-03 20:46 | 38.04756 | -18.80976 | 36235 ft | 427 kts | 271° |
| 2026-05-03 20:47 | 38.04724 | -18.88504 | 36229 ft | 427 kts | 271° |
| 2026-05-03 20:47 | 38.04691 | -18.96042 | 36225 ft | 427 kts | 271° |
| 2026-05-03 20:48 | 38.04647 | -19.03591 | 36227 ft | 428 kts | 271° |
| 2026-05-03 20:48 | 38.04605 | -19.11137 | 36229 ft | 428 kts | 271° |
| 2026-05-03 20:49 | 38.04560 | -19.18701 | 36219 ft | 429 kts | 271° |
| 2026-05-03 20:49 | 38.04506 | -19.26267 | 36227 ft | 429 kts | 271° |
| 2026-05-03 20:50 | 38.04442 | -19.33841 | 36231 ft | 429 kts | 271° |
| 2026-05-03 20:50 | 38.04377 | -19.41419 | 36231 ft | 430 kts | 271° |
| 2026-05-03 20:51 | 38.04312 | -19.48999 | 36222 ft | 430 kts | 270° |
| 2026-05-03 20:51 | 38.04239 | -19.56574 | 36227 ft | 430 kts | 270° |
| 2026-05-03 20:52 | 38.04164 | -19.64157 | 36232 ft | 430 kts | 270° |
| 2026-05-03 20:52 | 38.04083 | -19.71746 | 36229 ft | 430 kts | 270° |
| 2026-05-03 20:53 | 38.03988 | -19.79319 | 36242 ft | 430 kts | 270° |
| 2026-05-03 20:53 | 38.03896 | -19.86917 | 36234 ft | 430 kts | 270° |
| 2026-05-03 20:54 | 38.03794 | -19.94507 | 36224 ft | 431 kts | 270° |
| 2026-05-03 20:54 | 38.03634 | -20.05854 | 36229 ft | 431 kts | 270° |
| 2026-05-03 20:55 | 38.03527 | -20.13462 | 36247 ft | 431 kts | 270° |
| 2026-05-03 20:55 | 38.03412 | -20.21068 | 36249 ft | 432 kts | 270° |
| 2026-05-03 20:56 | 38.03286 | -20.28704 | 36229 ft | 433 kts | 270° |
| 2026-05-03 20:56 | 38.03164 | -20.36332 | 36243 ft | 433 kts | 270° |
| 2026-05-03 20:57 | 38.03040 | -20.43977 | 36253 ft | 433 kts | 270° |
| 2026-05-03 20:57 | 38.02905 | -20.51612 | 36247 ft | 434 kts | 270° |
| 2026-05-03 20:58 | 38.02763 | -20.59261 | 36248 ft | 434 kts | 270° |
| 2026-05-03 20:58 | 38.02616 | -20.66919 | 36253 ft | 434 kts | 270° |
| 2026-05-03 20:59 | 38.02462 | -20.74560 | 36254 ft | 434 kts | 270° |
| 2026-05-03 20:59 | 38.02306 | -20.82202 | 36244 ft | 434 kts | 270° |
| 2026-05-03 21:00 | 38.02169 | -20.88558 | 36238 ft | 434 kts | 270° |
| 2026-05-03 21:00 | 38.01979 | -20.97512 | 36242 ft | 434 kts | 270° |
| 2026-05-03 21:01 | 38.01804 | -21.05161 | 36244 ft | 434 kts | 270° |
| 2026-05-03 21:01 | 38.01637 | -21.12812 | 36244 ft | 434 kts | 270° |
| 2026-05-03 21:02 | 38.01456 | -21.20485 | 36235 ft | 435 kts | 269° |
| 2026-05-03 21:02 | 38.01268 | -21.28101 | 36238 ft | 435 kts | 269° |
| 2026-05-03 21:03 | 38.01074 | -21.35776 | 36246 ft | 436 kts | 269° |
| 2026-05-03 21:03 | 38.00880 | -21.43450 | 36251 ft | 436 kts | 269° |
| 2026-05-03 21:04 | 38.00675 | -21.51143 | 36237 ft | 437 kts | 269° |
| 2026-05-03 21:04 | 38.00462 | -21.58855 | 36250 ft | 438 kts | 269° |
| 2026-05-03 21:05 | 38.00259 | -21.66568 | 36253 ft | 438 kts | 269° |
| 2026-05-03 21:05 | 38.00044 | -21.74286 | 36254 ft | 438 kts | 269° |
| 2026-05-03 21:06 | 37.99823 | -21.81999 | 36241 ft | 438 kts | 269° |
| 2026-05-03 21:06 | 37.99589 | -21.89722 | 36241 ft | 439 kts | 269° |
| 2026-05-03 21:07 | 37.99353 | -21.97454 | 36249 ft | 439 kts | 269° |
| 2026-05-03 21:07 | 37.99115 | -22.05198 | 36257 ft | 440 kts | 269° |
| 2026-05-03 21:08 | 37.98874 | -22.12954 | 36262 ft | 440 kts | 269° |
| 2026-05-03 21:08 | 37.98624 | -22.20708 | 36265 ft | 440 kts | 269° |
| 2026-05-03 21:09 | 37.98369 | -22.28456 | 36269 ft | 440 kts | 269° |
| 2026-05-03 21:09 | 37.98107 | -22.36210 | 36269 ft | 440 kts | 269° |
| 2026-05-03 21:10 | 37.97845 | -22.43961 | 36267 ft | 440 kts | 269° |
| 2026-05-03 21:10 | 37.97577 | -22.51693 | 36257 ft | 440 kts | 269° |
| 2026-05-03 21:11 | 37.97308 | -22.59441 | 36256 ft | 440 kts | 269° |
| 2026-05-03 21:11 | 37.97026 | -22.67193 | 36258 ft | 441 kts | 268° |
| 2026-05-03 21:12 | 37.96739 | -22.74955 | 36265 ft | 441 kts | 268° |
| 2026-05-03 21:12 | 37.96439 | -22.82713 | 36258 ft | 441 kts | 268° |
| 2026-05-03 21:13 | 37.96144 | -22.90489 | 36260 ft | 442 kts | 268° |
| 2026-05-03 21:13 | 37.95851 | -22.98274 | 36262 ft | 443 kts | 268° |
| 2026-05-03 21:14 | 37.95540 | -23.06073 | 36267 ft | 443 kts | 268° |
| 2026-05-03 21:14 | 37.95231 | -23.13876 | 36262 ft | 444 kts | 268° |
| 2026-05-03 21:15 | 37.94920 | -23.21676 | 36269 ft | 444 kts | 270° |
| 2026-05-03 21:15 | 37.95534 | -23.29423 | 36268 ft | 442 kts | 279° |
| 2026-05-03 21:16 | 37.96445 | -23.37130 | 36274 ft | 442 kts | 279° |
| 2026-05-03 21:16 | 37.97340 | -23.44853 | 36272 ft | 443 kts | 279° |
| 2026-05-03 21:17 | 37.98076 | -23.51280 | 36273 ft | 443 kts | 279° |
| 2026-05-03 21:17 | 37.99110 | -23.60311 | 36275 ft | 443 kts | 279° |
| 2026-05-03 21:18 | 37.99997 | -23.68056 | 36278 ft | 444 kts | 279° |
| 2026-05-03 21:18 | 38.00875 | -23.75801 | 36283 ft | 444 kts | 278° |
| 2026-05-03 21:19 | 38.01743 | -23.83553 | 36287 ft | 444 kts | 279° |
| 2026-05-03 21:19 | 38.02607 | -23.91315 | 36285 ft | 445 kts | 279° |
| 2026-05-03 21:20 | 38.03472 | -23.99078 | 36284 ft | 445 kts | 278° |
| 2026-05-03 21:20 | 38.04334 | -24.06846 | 36290 ft | 444 kts | 278° |
| 2026-05-03 21:21 | 38.05197 | -24.14615 | 36278 ft | 445 kts | 278° |
| 2026-05-03 21:21 | 38.06042 | -24.22336 | 36278 ft | 445 kts | 278° |
| 2026-05-03 21:22 | 38.06889 | -24.30151 | 36285 ft | 444 kts | 278° |
| 2026-05-03 21:22 | 38.07724 | -24.37919 | 36278 ft | 445 kts | 278° |
| 2026-05-03 21:23 | 38.08552 | -24.45639 | 36281 ft | 444 kts | 278° |
| 2026-05-03 21:23 | 38.09382 | -24.53406 | 36290 ft | 444 kts | 278° |
| 2026-05-03 21:24 | 38.10207 | -24.61164 | 36289 ft | 444 kts | 278° |
| 2026-05-03 21:24 | 38.11024 | -24.68931 | 36290 ft | 444 kts | 278° |
| 2026-05-03 21:25 | 38.11834 | -24.76685 | 36295 ft | 444 kts | 278° |
| 2026-05-03 21:25 | 38.12640 | -24.84453 | 36294 ft | 444 kts | 277° |
| 2026-05-03 21:26 | 38.13439 | -24.92233 | 36296 ft | 443 kts | 277° |
| 2026-05-03 21:26 | 38.14232 | -24.99995 | 36300 ft | 443 kts | 277° |
| 2026-05-03 21:27 | 38.15023 | -25.07760 | 36285 ft | 444 kts | 277° |
| 2026-05-03 21:27 | 38.15805 | -25.15455 | 36281 ft | 435 kts | 277° |
| 2026-05-03 21:28 | 38.16573 | -25.23079 | 36283 ft | 434 kts | 277° |
| 2026-05-03 21:28 | 38.17341 | -25.30725 | 35504 ft | 441 kts | 277° |
| 2026-05-03 21:29 | 38.17728 | -25.34617 | 34402 ft | 447 kts | 277° |
| 2026-05-03 21:29 | 38.18116 | -25.38549 | 33253 ft | 451 kts | 278° |
| 2026-05-03 21:29 | 38.18502 | -25.42464 | 32181 ft | 452 kts | 278° |
| 2026-05-03 21:29 | 38.18891 | -25.46442 | 31335 ft | 445 kts | 277° |
| 2026-05-03 21:30 | 38.19262 | -25.50267 | 30524 ft | 439 kts | 278° |
| 2026-05-03 21:30 | 38.19635 | -25.54112 | 29506 ft | 435 kts | 278° |
| 2026-05-03 21:30 | 38.20005 | -25.57899 | 28578 ft | 429 kts | 278° |
| 2026-05-03 21:30 | 38.20369 | -25.61636 | 27706 ft | 423 kts | 278° |
| 2026-05-03 21:31 | 38.20728 | -25.65346 | 26745 ft | 427 kts | 277° |
| 2026-05-03 21:31 | 38.21090 | -25.69125 | 25703 ft | 434 kts | 277° |
| 2026-05-03 21:31 | 38.21457 | -25.72972 | 24718 ft | 442 kts | 277° |
| 2026-05-03 21:31 | 38.21828 | -25.76869 | 23732 ft | 445 kts | 277° |
| 2026-05-03 21:32 | 38.22198 | -25.80766 | 22935 ft | 445 kts | 277° |
| 2026-05-03 21:32 | 38.22446 | -25.83352 | 22443 ft | 444 kts | 277° |
| 2026-05-03 21:32 | 38.22944 | -25.88541 | 21478 ft | 441 kts | 277° |
| 2026-05-03 21:32 | 38.23312 | -25.92411 | 20783 ft | 439 kts | 277° |
| 2026-05-03 21:33 | 38.23550 | -25.94953 | 20323 ft | 438 kts | 277° |
| 2026-05-03 21:33 | 38.23906 | -25.98792 | 19637 ft | 437 kts | 277° |
| 2026-05-03 21:33 | 38.24263 | -26.02627 | 18953 ft | 436 kts | 277° |
| 2026-05-03 21:33 | 38.24616 | -26.06452 | 18244 ft | 435 kts | 277° |
| 2026-05-03 21:34 | 38.24967 | -26.10267 | 17566 ft | 432 kts | 277° |
| 2026-05-03 21:34 | 38.25315 | -26.14037 | 16929 ft | 427 kts | 277° |
| 2026-05-03 21:34 | 38.25660 | -26.17776 | 16311 ft | 423 kts | 277° |
| 2026-05-03 21:34 | 38.26004 | -26.21475 | 15705 ft | 420 kts | 277° |
| 2026-05-03 21:35 | 38.26214 | -26.25150 | 15060 ft | 417 kts | 268° |
| 2026-05-03 21:35 | 38.25704 | -26.28812 | 14032 ft | 426 kts | 250° |
| 2026-05-03 21:35 | 38.24391 | -26.32086 | 13515 ft | 401 kts | 233° |
| 2026-05-03 21:35 | 38.22606 | -26.34596 | 13217 ft | 366 kts | 217° |
| 2026-05-03 21:36 | 38.20590 | -26.36285 | 13061 ft | 332 kts | 203° |
| 2026-05-03 21:36 | 38.18493 | -26.37241 | 12728 ft | 312 kts | 190° |
| 2026-05-03 21:36 | 38.16385 | -26.37550 | 12141 ft | 301 kts | 176° |
| 2026-05-03 21:36 | 38.14322 | -26.37277 | 11504 ft | 294 kts | 162° |
| 2026-05-03 21:37 | 38.12404 | -26.36489 | 10867 ft | 288 kts | 151° |
| 2026-05-03 21:37 | 38.10682 | -26.35256 | 10251 ft | 282 kts | 141° |
| 2026-05-03 21:37 | 38.09201 | -26.33647 | 9559 ft | 277 kts | 129° |
| 2026-05-03 21:37 | 38.08025 | -26.31760 | 8950 ft | 270 kts | 119° |
| 2026-05-03 21:38 | 38.07160 | -26.29671 | 8320 ft | 265 kts | 110° |
| 2026-05-03 21:38 | 38.06627 | -26.27449 | 7662 ft | 263 kts | 99° |
| 2026-05-03 21:38 | 38.06422 | -26.25192 | 7048 ft | 260 kts | 92° |
| 2026-05-03 21:38 | 38.05989 | -26.22934 | 6632 ft | 263 kts | 115° |
| 2026-05-03 21:39 | 38.05146 | -26.20912 | 6283 ft | 262 kts | 116° |
| 2026-05-03 21:39 | 38.04294 | -26.18848 | 5943 ft | 260 kts | 115° |
| 2026-05-03 21:39 | 38.03472 | -26.16823 | 5596 ft | 258 kts | 115° |
| 2026-05-03 21:39 | 38.02657 | -26.14798 | 5248 ft | 257 kts | 115° |
| 2026-05-03 21:40 | 38.01852 | -26.12790 | 4899 ft | 255 kts | 115° |
| 2026-05-03 21:40 | 38.01053 | -26.10788 | 4550 ft | 253 kts | 114° |
| 2026-05-03 21:40 | 38.00273 | -26.08834 | 4220 ft | 251 kts | 114° |
| 2026-05-03 21:40 | 37.99485 | -26.06869 | 4052 ft | 250 kts | 115° |
| 2026-05-03 21:41 | 37.98695 | -26.04904 | 4054 ft | 250 kts | 115° |
| 2026-05-03 21:41 | 37.97906 | -26.02938 | 4051 ft | 251 kts | 114° |
| 2026-05-03 21:41 | 37.97113 | -26.00957 | 4051 ft | 251 kts | 115° |
| 2026-05-03 21:41 | 37.96324 | -25.98992 | 4046 ft | 250 kts | 114° |
| 2026-05-03 21:42 | 37.95379 | -25.97138 | 4043 ft | 254 kts | 130° |
| 2026-05-03 21:42 | 37.93942 | -25.95802 | 4047 ft | 260 kts | 152° |
| 2026-05-03 21:42 | 37.92175 | -25.95246 | 4049 ft | 266 kts | 175° |
| 2026-05-03 21:42 | 37.90340 | -25.95604 | 4037 ft | 272 kts | 198° |
| 2026-05-03 21:43 | 37.88731 | -25.96873 | 4049 ft | 277 kts | 222° |
| 2026-05-03 21:43 | 37.87566 | -25.98857 | 4051 ft | 279 kts | 236° |
| 2026-05-03 21:43 | 37.86294 | -26.00625 | 4044 ft | 274 kts | 210° |
| 2026-05-03 21:43 | 37.84525 | -26.01446 | 4044 ft | 266 kts | 181° |
| 2026-05-03 21:44 | 37.82756 | -26.01154 | 4039 ft | 258 kts | 154° |
| 2026-05-03 21:44 | 37.81304 | -25.99904 | 4044 ft | 251 kts | 128° |
| 2026-05-03 21:44 | 37.80467 | -25.98013 | 4041 ft | 247 kts | 103° |
| 2026-05-03 21:44 | 37.80127 | -25.95885 | 3989 ft | 245 kts | 98° |
| 2026-05-03 21:45 | 37.79890 | -25.93802 | 3864 ft | 235 kts | 94° |
| 2026-05-03 21:45 | 37.79748 | -25.91786 | 3726 ft | 225 kts | 93° |
| 2026-05-03 21:45 | 37.79629 | -25.89894 | 3620 ft | 207 kts | 93° |
| 2026-05-03 21:45 | 37.79521 | -25.88175 | 3472 ft | 184 kts | 93° |
| 2026-05-03 21:46 | 37.79409 | -25.86665 | 3348 ft | 162 kts | 94° |
| 2026-05-03 21:46 | 37.79147 | -25.85380 | 3200 ft | 142 kts | 107° |
| 2026-05-03 21:46 | 37.78749 | -25.84253 | 2960 ft | 141 kts | 111° |
| 2026-05-03 21:46 | 37.78333 | -25.83135 | 2722 ft | 140 kts | 110° |
| 2026-05-03 21:47 | 37.77948 | -25.82004 | 2451 ft | 139 kts | 109° |
| 2026-05-03 21:47 | 37.77602 | -25.80862 | 2110 ft | 139 kts | 106° |
| 2026-05-03 21:47 | 37.77280 | -25.79716 | 1746 ft | 139 kts | 106° |
| 2026-05-03 21:47 | 37.76942 | -25.78563 | 1367 ft | 138 kts | 105° |
| 2026-05-03 21:48 | 37.76596 | -25.77436 | 1158 ft | 137 kts | 107° |
| 2026-05-03 21:48 | 37.76238 | -25.76308 | 1031 ft | 139 kts | 107° |
| 2026-05-03 21:48 | 37.75890 | -25.75167 | 976 ft | 141 kts | 105° |
| 2026-05-03 21:48 | 37.75547 | -25.74011 | 818 ft | 140 kts | 106° |
| 2026-05-03 21:49 | 37.75183 | -25.72874 | 617 ft | 142 kts | 109° |
| 2026-05-03 21:49 | 37.74821 | -25.71726 | 408 ft | 139 kts | 109° |
| 2026-05-03 21:49 | 37.74458 | -25.70592 | 269 ft | 138 kts | 110° |
| 2026-05-03 21:49 | 37.74169 | -25.69671 | 229 ft | 73 kts | 112° |
| 2026-05-03 21:50 | 37.74048 | -25.69282 | 211 ft | 40 kts | 111° |
| 2026-05-03 21:50 | 37.73949 | -25.68956 | 197 ft | 31 kts | 112° |
| 2026-05-03 21:50 | 37.73883 | -25.68758 | 188 ft | 21 kts | 112° |
| 2026-05-03 21:50 | 37.73812 | -25.68596 | 192 ft | 21 kts | 138° |
| 2026-05-03 21:51 | 37.73747 | -25.68483 | 182 ft | 11 kts | 60° |
| 2026-05-03 21:51 | 37.73804 | -25.68540 | 191 ft | 18 kts | 292° |
| 2026-05-03 21:51 | 37.73853 | -25.68697 | 193 ft | 18 kts | 293° |
| 2026-05-03 21:51 | 37.73899 | -25.68836 | 193 ft | 15 kts | 292° |
| 2026-05-03 21:52 | 37.73936 | -25.68943 | 195 ft | 14 kts | 293° |
| 2026-05-03 21:52 | 37.73984 | -25.69085 | 210 ft | 19 kts | 294° |
| 2026-05-03 21:52 | 37.74030 | -25.69217 | 213 ft | 14 kts | 292° |
| 2026-05-03 21:52 | 37.74061 | -25.69311 | 216 ft | 9 kts | 292° |
| 2026-05-03 21:53 | 37.74082 | -25.69384 | 217 ft | 13 kts | 290° |
| 2026-05-03 21:53 | 37.74132 | -25.69551 | 222 ft | 24 kts | 291° |
| 2026-05-03 21:53 | 37.74186 | -25.69723 | 232 ft | 22 kts | 292° |
| 2026-05-03 21:53 | 37.74256 | -25.69937 | 237 ft | 24 kts | 292° |
| 2026-05-03 21:54 | 37.74310 | -25.70106 | 241 ft | 18 kts | 293° |
| 2026-05-03 21:54 | 37.74373 | -25.70224 | 246 ft | 15 kts | 310° |
| 2026-05-03 21:54 | 37.74445 | -25.70311 | 254 ft | 16 kts | 318° |
| 2026-05-03 21:54 | 37.74539 | -25.70411 | 264 ft | 19 kts | 321° |
| 2026-05-03 21:55 | 37.74613 | -25.70519 | 272 ft | 14 kts | 298° |
| 2026-05-03 21:55 | 37.74653 | -25.70639 | 276 ft | 15 kts | 292° |
| 2026-05-03 21:55 | 37.74690 | -25.70753 | 272 ft | 13 kts | 292° |
| 2026-05-03 21:55 | 37.74721 | -25.70851 | 271 ft | 11 kts | 291° |
| 2026-05-03 21:56 | 37.74748 | -25.70938 | 272 ft | 10 kts | 291° |
| 2026-05-03 21:56 | 37.74775 | -25.71027 | 272 ft | 10 kts | 291° |
| 2026-05-03 21:56 | 37.74791 | -25.71067 | 273 ft | 4 kts | 314° |
| 2026-05-03 21:56 | 37.74830 | -25.71072 | 272 ft | 5 kts | 16° |
| 2026-05-03 21:57 | 37.74850 | -25.71062 | 271 ft | 2 kts | 21° |
| 2026-05-03 21:57 | 37.74860 | -25.71057 | 271 ft | 3 kts | 21° |
| 2026-05-03 21:57 | 37.74862 | -25.71056 | 271 ft | 0 kts | 21° |